createdAt,value
2018-10-19T00:03:35.971Z,99.90
2018-10-19T00:08:15.791Z,99.90
2018-10-19T00:12:55.711Z,99.90
2018-10-19T00:17:35.580Z,99.90
2018-10-19T00:22:15.425Z,99.90
2018-10-19T00:26:55.415Z,99.90
2018-10-19T00:31:35.052Z,99.90
2018-10-19T00:36:14.994Z,99.90
2018-10-19T00:40:55.037Z,99.90
2018-10-19T00:45:40.148Z,99.90
2018-10-19T00:50:20.108Z,99.90
2018-10-19T00:55:00.003Z,99.90
2018-10-19T00:59:39.876Z,99.90
2018-10-19T01:04:19.788Z,99.90
2018-10-19T01:08:59.610Z,99.90
2018-10-19T01:13:39.433Z,99.90
2018-10-19T01:18:19.208Z,99.90
2018-10-19T01:22:59.119Z,99.90
2018-10-19T01:27:38.907Z,99.90
2018-10-19T01:32:18.782Z,99.90
2018-10-19T01:37:02.876Z,99.90
2018-10-19T01:41:43.379Z,99.90
2018-10-19T01:46:23.136Z,99.90
2018-10-19T01:51:03.005Z,99.90
2018-10-19T01:55:42.965Z,99.90
2018-10-19T02:00:22.724Z,99.90
2018-10-19T02:05:02.525Z,99.90
2018-10-19T02:09:42.286Z,99.90
2018-10-19T02:14:22.060Z,99.90
2018-10-19T02:19:01.724Z,99.90
2018-10-19T02:23:41.624Z,99.90
2018-10-19T02:28:21.497Z,99.90
2018-10-19T02:33:01.461Z,99.90
2018-10-19T02:37:41.165Z,99.90
2018-10-19T02:42:20.936Z,99.90
2018-10-19T02:47:00.936Z,99.90
2018-10-19T02:51:40.836Z,99.90
2018-10-19T02:56:21.246Z,99.90
2018-10-19T03:01:01.125Z,99.90
2018-10-19T03:05:40.820Z,99.90
2018-10-19T03:10:20.950Z,99.90
2018-10-19T03:15:00.898Z,99.90
2018-10-19T03:19:40.764Z,99.90
2018-10-19T03:24:20.676Z,99.90
2018-10-19T03:29:00.801Z,99.90
2018-10-19T03:33:40.669Z,99.90
2018-10-19T03:38:21.750Z,99.90
2018-10-19T03:43:01.691Z,99.90
2018-10-19T03:47:41.641Z,99.90
2018-10-19T03:52:22.963Z,99.90
2018-10-19T03:57:02.803Z,99.90
2018-10-19T04:01:42.785Z,99.90
2018-10-19T04:06:22.754Z,99.90
2018-10-19T04:11:03.695Z,99.90
2018-10-19T04:15:43.624Z,99.90
2018-10-19T04:20:24.092Z,99.90
2018-10-19T04:25:04.399Z,99.90
2018-10-19T04:29:44.173Z,99.90
2018-10-19T04:34:24.567Z,99.90
2018-10-19T04:39:05.571Z,99.90
2018-10-19T04:43:45.449Z,99.90
2018-10-19T04:48:25.543Z,99.90
2018-10-19T04:53:06.843Z,99.90
2018-10-19T04:57:46.664Z,99.90
2018-10-19T05:02:26.699Z,99.90
2018-10-19T05:07:06.749Z,99.90
2018-10-19T05:11:47.897Z,99.90
2018-10-19T05:16:29.364Z,99.90
2018-10-19T05:21:09.373Z,99.90
2018-10-19T05:25:49.329Z,99.90
2018-10-19T05:30:29.191Z,99.90
2018-10-19T05:35:09.223Z,99.90
2018-10-19T05:39:49.231Z,99.90
2018-10-19T05:44:29.228Z,99.90
2018-10-19T05:49:09.629Z,99.90
2018-10-19T05:53:49.599Z,99.90
2018-10-19T05:58:29.432Z,99.90
2018-10-19T06:03:09.372Z,99.90
2018-10-19T06:07:49.086Z,99.90
2018-10-19T06:12:29.052Z,99.90
2018-10-19T06:17:08.947Z,99.90
2018-10-19T06:21:48.933Z,99.90
2018-10-19T06:26:30.022Z,99.90
2018-10-19T06:31:09.852Z,99.90
2018-10-19T06:35:49.623Z,99.90
2018-10-19T06:40:29.369Z,99.90
2018-10-19T06:45:09.256Z,99.90
2018-10-19T06:49:49.425Z,99.90
2018-10-19T06:54:29.403Z,99.90
2018-10-19T06:59:10.259Z,99.90
2018-10-19T07:03:51.052Z,99.90
2018-10-19T07:08:31.278Z,99.90
2018-10-19T07:13:11.710Z,99.90
2018-10-19T07:17:52.135Z,99.90
2018-10-19T07:22:33.237Z,99.90
2018-10-19T07:27:13.155Z,99.90
2018-10-19T07:31:52.945Z,99.90
2018-10-19T07:36:32.893Z,99.90
2018-10-19T07:41:12.647Z,99.90
2018-10-19T07:45:52.540Z,99.90
2018-10-19T07:50:32.224Z,99.90
2018-10-19T07:55:12.364Z,99.90
2018-10-19T07:59:52.260Z,99.90
2018-10-19T08:04:33.023Z,99.90
2018-10-19T08:09:13.185Z,99.90
2018-10-19T08:13:52.836Z,99.90
2018-10-19T08:18:33.767Z,98.40
2018-10-19T08:23:15.586Z,98.10
2018-10-19T08:27:58.178Z,95.40
2018-10-19T08:32:39.644Z,92.80
2018-10-19T08:37:20.068Z,91.30
2018-10-19T08:42:00.681Z,88.60
2018-10-19T08:46:41.961Z,88.50
2018-10-19T08:51:22.068Z,89.30
2018-10-19T08:56:02.648Z,86.50
2018-10-19T09:00:43.883Z,83.00
2018-10-19T09:05:23.924Z,79.60
2018-10-19T09:10:04.423Z,79.80
2018-10-19T09:14:53.123Z,78.00
2018-10-19T09:19:32.939Z,75.70
2018-10-19T09:24:12.976Z,74.80
2018-10-19T09:28:52.879Z,74.70
2018-10-19T09:33:32.611Z,75.40
2018-10-19T09:38:12.463Z,73.60
2018-10-19T09:42:52.438Z,76.70
2018-10-19T09:47:32.537Z,75.80
2018-10-19T09:52:12.267Z,73.20
2018-10-19T09:56:52.068Z,74.00
2018-10-19T10:01:31.945Z,72.90
2018-10-19T10:06:12.008Z,68.80
2018-10-19T10:10:51.912Z,67.30
2018-10-19T10:15:32.072Z,66.50
2018-10-19T10:20:11.784Z,67.00
2018-10-19T10:24:51.747Z,67.70
2018-10-19T10:29:31.771Z,67.20
2018-10-19T10:34:12.926Z,69.10
2018-10-19T10:39:36.400Z,68.40
2018-10-19T10:44:18.491Z,69.10
2018-10-19T10:48:58.987Z,71.70
2018-10-19T10:53:40.427Z,70.10
2018-10-19T10:58:20.291Z,67.20
2018-10-19T11:03:02.524Z,66.30
2018-10-19T11:07:43.037Z,67.30
2018-10-19T11:12:25.690Z,66.40
2018-10-19T11:17:05.728Z,67.00
2018-10-19T11:21:45.698Z,67.40
2018-10-19T11:26:25.717Z,68.30
2018-10-19T11:31:06.219Z,70.90
2018-10-19T11:35:46.020Z,75.60
2018-10-19T11:40:36.399Z,74.00
2018-10-19T11:45:16.088Z,70.30
2018-10-19T11:49:56.044Z,67.50
2018-10-19T11:54:36.061Z,65.70
2018-10-19T11:59:15.951Z,66.20
2018-10-19T12:03:55.702Z,65.80
2018-10-19T12:08:35.572Z,67.00
2018-10-19T12:13:15.450Z,71.50
2018-10-19T12:17:55.353Z,76.80
2018-10-19T12:22:35.197Z,80.50
2018-10-19T12:27:15.284Z,83.60
2018-10-19T12:31:55.093Z,86.00
2018-10-19T12:36:34.817Z,88.70
2018-10-19T12:41:14.784Z,89.60
2018-10-19T12:46:32.343Z,90.10
2018-10-19T12:51:12.233Z,90.70
2018-10-19T12:55:52.481Z,91.90
2018-10-19T13:00:32.417Z,92.30
2018-10-19T13:05:12.266Z,92.70
2018-10-19T13:09:52.305Z,93.50
2018-10-19T13:14:32.050Z,93.60
2018-10-19T13:19:11.984Z,93.80
2018-10-19T13:23:51.800Z,94.20
2018-10-19T13:28:31.744Z,94.40
2018-10-19T13:33:11.995Z,94.80
2018-10-19T13:37:51.733Z,95.00
2018-10-19T13:42:31.546Z,95.10
2018-10-19T13:47:11.434Z,95.60
2018-10-19T13:51:51.419Z,95.50
2018-10-19T13:56:31.664Z,95.90
2018-10-19T14:01:11.792Z,96.30
2018-10-19T14:05:51.692Z,96.30
2018-10-19T14:10:31.989Z,96.40
2018-10-19T14:15:14.069Z,96.30
2018-10-19T14:19:54.518Z,96.10
2018-10-19T14:24:34.725Z,96.90
2018-10-19T14:29:15.456Z,97.30
2018-10-19T14:33:56.777Z,97.00
2018-10-19T14:38:37.774Z,97.20
2018-10-19T14:43:18.833Z,97.50
2018-10-19T14:52:45.384Z,98.00
2018-10-19T14:57:25.172Z,98.40
2018-10-19T15:02:05.213Z,98.10
2018-10-19T15:06:47.886Z,98.60
2018-10-19T15:11:32.378Z,99.00
2018-10-19T15:16:13.690Z,99.50
2018-10-19T15:20:54.123Z,99.10
2018-10-19T15:25:34.748Z,99.30
2018-10-19T15:30:17.717Z,99.40
2018-10-19T15:34:57.584Z,99.70
2018-10-19T15:39:38.048Z,99.90
2018-10-19T15:44:17.986Z,99.90
2018-10-19T15:48:57.805Z,99.90
2018-10-19T15:53:37.748Z,99.90
2018-10-19T15:58:17.784Z,99.90
2018-10-19T16:02:57.475Z,99.90
2018-10-19T16:07:37.198Z,99.90
2018-10-19T16:12:17.208Z,99.90
2018-10-19T16:16:57.056Z,99.90
2018-10-19T16:21:36.896Z,99.90
2018-10-19T16:26:16.909Z,99.90
2018-10-19T16:30:56.728Z,99.90
2018-10-19T16:35:36.489Z,99.90
2018-10-19T16:40:16.328Z,99.90
2018-10-19T16:44:56.126Z,99.90
2018-10-19T16:49:36.325Z,99.90
2018-10-19T16:54:16.083Z,99.90
2018-10-19T16:58:55.864Z,99.90
2018-10-19T17:03:35.684Z,99.90
2018-10-19T17:08:15.544Z,99.90
2018-10-19T17:12:55.423Z,99.90
2018-10-19T17:17:35.117Z,99.90
2018-10-19T17:22:15.932Z,99.90
2018-10-19T17:26:56.250Z,99.90
2018-10-19T17:31:38.038Z,99.90
2018-10-19T17:36:17.921Z,99.90
2018-10-19T17:40:59.942Z,99.90
2018-10-19T17:45:40.281Z,99.90
2018-10-19T17:50:20.181Z,99.90
2018-10-19T17:55:00.936Z,99.90
2018-10-19T17:59:40.941Z,99.90
2018-10-19T18:04:21.629Z,99.90
2018-10-19T18:09:01.617Z,99.90
2018-10-19T18:13:41.742Z,99.90
2018-10-19T18:18:21.851Z,99.90
2018-10-19T18:23:03.136Z,99.90
2018-10-19T18:27:42.820Z,99.90
2018-10-19T18:32:23.469Z,99.90
2018-10-19T18:37:04.184Z,99.90
2018-10-19T18:41:44.562Z,99.90
2018-10-19T18:46:25.681Z,99.90
2018-10-19T18:51:06.440Z,99.90
2018-10-19T18:55:46.972Z,99.90
2018-10-19T19:00:26.920Z,99.90
2018-10-19T19:06:10.984Z,99.90
2018-10-19T19:10:50.936Z,99.90
2018-10-19T19:15:31.539Z,99.90
2018-10-19T19:20:16.641Z,99.90
2018-10-19T19:25:01.733Z,99.90
2018-10-19T19:29:41.656Z,99.90
2018-10-19T19:34:25.817Z,99.90
2018-10-19T19:39:08.921Z,99.90
2018-10-19T19:43:49.572Z,99.90
2018-10-19T19:48:35.019Z,99.90
2018-10-19T19:53:15.066Z,99.90
2018-10-19T19:57:54.747Z,99.90
2018-10-19T20:02:34.731Z,99.90
2018-10-19T20:07:14.697Z,99.90
2018-10-19T20:11:55.413Z,99.90
2018-10-19T20:16:37.036Z,99.90
2018-10-19T20:21:17.849Z,99.90
2018-10-19T20:25:57.660Z,99.90
2018-10-19T20:30:38.440Z,99.90
2018-10-19T20:35:18.612Z,99.90
2018-10-19T20:39:58.991Z,99.90
2018-10-19T20:44:39.152Z,99.90
2018-10-19T20:49:19.000Z,99.90
2018-10-19T20:53:59.116Z,99.90
2018-10-19T20:58:39.857Z,99.90
2018-10-19T21:03:20.345Z,99.90
2018-10-19T21:08:00.416Z,99.90
2018-10-19T21:12:41.000Z,99.90
2018-10-19T21:17:21.268Z,99.90
2018-10-19T21:22:01.136Z,99.90
2018-10-19T21:26:41.065Z,99.90
2018-10-19T21:31:21.154Z,99.90
2018-10-19T21:36:01.069Z,99.90
2018-10-19T21:40:40.968Z,99.90
2018-10-19T21:45:21.217Z,99.90
2018-10-19T21:50:01.901Z,99.90
2018-10-19T21:54:41.789Z,99.90
2018-10-19T21:59:22.420Z,99.90
2018-10-19T22:04:02.429Z,99.90
2018-10-19T22:08:42.164Z,99.90
2018-10-19T22:13:22.682Z,99.90
2018-10-19T22:18:02.480Z,99.90
2018-10-19T22:22:43.429Z,99.90
2018-10-19T22:27:23.287Z,99.90
2018-10-19T22:32:03.347Z,99.90
2018-10-19T22:36:43.725Z,99.90
2018-10-19T22:41:24.895Z,99.90
2018-10-19T22:46:04.779Z,99.90
2018-10-19T22:50:45.580Z,99.90
2018-10-19T22:55:26.182Z,99.90
2018-10-19T23:00:06.788Z,99.90
2018-10-19T23:04:46.821Z,99.90
2018-10-19T23:09:27.049Z,99.90
2018-10-19T23:14:07.089Z,99.90
2018-10-19T23:18:47.404Z,99.90
2018-10-19T23:23:27.512Z,99.90
2018-10-19T23:28:07.573Z,99.90
2018-10-19T23:32:47.926Z,99.90
2018-10-19T23:37:28.691Z,99.90
2018-10-19T23:42:08.693Z,99.90
2018-10-19T23:46:49.112Z,99.90
2018-10-19T23:51:29.545Z,99.90
2018-10-19T23:56:11.117Z,99.90
